createdAt,value
2022-09-30T00:01:12.965Z,15.30
2022-09-30T00:03:40.459Z,12.50
2022-09-30T00:06:09.131Z,14.93
2022-09-30T00:08:37.526Z,17.25
2022-09-30T00:11:06.615Z,20.02
2022-09-30T00:13:34.988Z,17.90
2022-09-30T00:16:02.504Z,19.58
2022-09-30T00:18:30.423Z,24.67
2022-09-30T00:20:57.735Z,36.22
2022-09-30T00:23:25.384Z,53.50
2022-09-30T00:25:52.811Z,19.65
2022-09-30T00:28:20.043Z,88.25
2022-09-30T00:30:48.324Z,101.10
2022-09-30T00:33:15.539Z,41.45
2022-09-30T00:35:42.820Z,61.53
2022-09-30T00:38:10.035Z,33.83
2022-09-30T00:40:39.351Z,64.28
2022-09-30T00:43:21.347Z,35.03
2022-09-30T00:45:57.399Z,15.38
2022-09-30T00:48:29.356Z,44.28
2022-09-30T00:50:56.840Z,60.90
2022-09-30T00:53:44.433Z,35.28
2022-09-30T00:56:14.100Z,55.75
2022-09-30T00:58:44.472Z,33.10
2022-09-30T01:01:11.882Z,16.95
2022-09-30T01:03:41.800Z,11.65
2022-09-30T01:06:09.441Z,11.27
2022-09-30T01:08:38.000Z,10.13
2022-09-30T01:11:08.168Z,10.13
2022-09-30T01:13:36.522Z,10.73
2022-09-30T01:16:12.326Z,10.00
2022-09-30T01:18:48.065Z,8.40
2022-09-30T01:21:15.277Z,7.47
2022-09-30T01:23:42.835Z,8.95
2022-09-30T01:26:20.653Z,8.25
2022-09-30T01:29:00.845Z,8.45
2022-09-30T01:31:40.427Z,9.43
2022-09-30T01:34:23.825Z,7.50
2022-09-30T01:37:23.294Z,8.70
2022-09-30T01:40:31.086Z,23.67
2022-09-30T01:43:00.935Z,10.05
2022-09-30T01:45:28.407Z,11.50
2022-09-30T01:48:17.415Z,181.45
2022-09-30T01:50:47.799Z,19.83
2022-09-30T01:53:33.904Z,25.35
2022-09-30T01:56:03.948Z,15.48
2022-09-30T01:58:36.752Z,15.95
2022-09-30T02:01:07.115Z,10.30
2022-09-30T02:03:34.455Z,10.15
2022-09-30T02:06:04.751Z,11.75
2022-09-30T02:08:36.371Z,24.65
2022-09-30T02:11:12.992Z,20.25
2022-09-30T02:13:46.520Z,16.73
2022-09-30T02:16:17.922Z,12.18
2022-09-30T02:18:54.131Z,11.98
2022-09-30T02:21:24.160Z,17.30
2022-09-30T02:23:54.556Z,19.02
2022-09-30T02:26:24.642Z,19.60
2022-09-30T02:28:58.354Z,19.27
2022-09-30T02:31:27.863Z,26.27
2022-09-30T02:33:57.734Z,20.73
2022-09-30T02:36:34.343Z,37.60
2022-09-30T02:39:07.338Z,30.98
2022-09-30T02:41:39.570Z,22.73
2022-09-30T02:44:07.285Z,13.43
2022-09-30T02:46:53.635Z,14.65
2022-09-30T02:49:29.548Z,22.48
2022-09-30T02:52:03.644Z,19.58
2022-09-30T02:54:30.877Z,14.65
2022-09-30T02:57:01.603Z,21.08
2022-09-30T02:59:28.912Z,26.85
2022-09-30T03:01:56.420Z,15.43
2022-09-30T03:04:26.031Z,23.33
2022-09-30T03:06:53.300Z,85.38
2022-09-30T03:09:25.168Z,41.95
2022-09-30T03:11:55.914Z,20.65
2022-09-30T03:14:29.206Z,37.22
2022-09-30T03:16:59.197Z,16.08
2022-09-30T03:19:26.947Z,15.95
2022-09-30T03:21:57.247Z,23.65
2022-09-30T03:24:51.308Z,15.90
2022-09-30T03:27:34.902Z,13.03
2022-09-30T03:30:07.959Z,11.75
2022-09-30T03:32:47.551Z,15.90
2022-09-30T03:35:17.598Z,25.20
2022-09-30T03:38:08.096Z,28.58
2022-09-30T03:40:42.274Z,76.18
2022-09-30T03:43:29.739Z,21.23
2022-09-30T03:46:07.020Z,44.80
2022-09-30T03:48:35.187Z,21.40
2022-09-30T03:51:02.646Z,68.15
2022-09-30T03:53:29.847Z,64.05
2022-09-30T03:55:57.178Z,132.73
2022-09-30T03:58:24.738Z,160.68
2022-09-30T04:00:57.238Z,96.78
2022-09-30T04:03:24.975Z,61.08
2022-09-30T04:05:52.202Z,89.18
2022-09-30T04:08:19.489Z,64.82
2022-09-30T04:10:46.940Z,31.77
2022-09-30T04:13:14.275Z,109.75
2022-09-30T04:15:41.743Z,36.05
2022-09-30T04:18:09.063Z,15.90
2022-09-30T04:20:36.414Z,130.10
2022-09-30T04:23:03.947Z,68.45
2022-09-30T04:25:31.280Z,69.88
2022-09-30T04:27:58.594Z,61.35
2022-09-30T04:30:30.142Z,32.38
2022-09-30T04:33:00.046Z,30.42
2022-09-30T04:35:30.342Z,93.30
2022-09-30T04:37:57.903Z,50.00
2022-09-30T04:40:25.586Z,49.33
2022-09-30T04:42:57.101Z,82.70
2022-09-30T04:45:25.290Z,116.40
2022-09-30T04:47:52.701Z,52.95
2022-09-30T04:50:20.127Z,173.98
2022-09-30T04:52:47.704Z,89.55
2022-09-30T04:55:15.060Z,156.90
2022-09-30T04:57:45.404Z,185.32
2022-09-30T05:00:12.946Z,77.72
2022-09-30T05:02:40.212Z,132.15
2022-09-30T05:05:07.792Z,78.65
2022-09-30T05:07:35.029Z,99.00
2022-09-30T05:10:02.273Z,303.38
2022-09-30T05:12:29.788Z,158.38
2022-09-30T05:14:57.107Z,52.92
2022-09-30T05:17:24.363Z,189.55
2022-09-30T05:19:51.723Z,111.53
2022-09-30T05:22:18.929Z,23.73
2022-09-30T05:24:46.173Z,16.00
2022-09-30T05:27:13.511Z,76.93
2022-09-30T05:29:40.776Z,21.58
2022-09-30T05:32:08.013Z,9.93
2022-09-30T05:34:35.267Z,20.05
2022-09-30T05:37:02.525Z,35.17
2022-09-30T05:39:29.943Z,25.13
2022-09-30T05:41:57.797Z,24.42
2022-09-30T05:44:25.035Z,13.63
2022-09-30T05:46:52.508Z,27.77
2022-09-30T05:49:19.780Z,23.52
2022-09-30T05:51:47.856Z,26.05
2022-09-30T05:54:15.126Z,17.02
2022-09-30T05:56:42.418Z,25.25
2022-09-30T05:59:09.900Z,12.82
2022-09-30T06:01:37.852Z,20.50
2022-09-30T06:04:05.151Z,19.10
2022-09-30T06:06:33.040Z,11.90
2022-09-30T06:09:00.388Z,14.77
2022-09-30T06:11:27.679Z,14.80
2022-09-30T06:13:54.941Z,10.68
2022-09-30T06:16:24.155Z,11.02
2022-09-30T06:18:51.439Z,11.73
2022-09-30T06:21:19.517Z,10.15
2022-09-30T06:23:46.815Z,9.30
2022-09-30T06:26:14.655Z,11.50
2022-09-30T06:28:42.394Z,12.65
2022-09-30T06:31:10.243Z,11.27
2022-09-30T06:33:37.674Z,50.83
2022-09-30T06:36:07.075Z,29.92
2022-09-30T06:38:37.221Z,38.92
2022-09-30T06:41:05.044Z,17.05
2022-09-30T06:43:44.599Z,56.20
2022-09-30T06:46:24.402Z,72.07
2022-09-30T06:49:10.511Z,57.22
2022-09-30T06:51:40.027Z,197.93
2022-09-30T06:54:09.227Z,163.18
2022-09-30T06:56:37.185Z,76.00
2022-09-30T06:59:04.747Z,39.50
2022-09-30T07:01:32.033Z,170.95
2022-09-30T07:03:59.254Z,21.92
2022-09-30T07:06:26.558Z,19.75
2022-09-30T07:08:54.332Z,27.65
2022-09-30T07:11:21.870Z,17.15
2022-09-30T07:13:49.428Z,64.15
2022-09-30T07:16:19.314Z,90.45
2022-09-30T07:18:46.955Z,90.65
2022-09-30T07:21:16.330Z,109.82
2022-09-30T07:23:48.405Z,65.95
2022-09-30T07:26:17.267Z,64.00
2022-09-30T07:28:45.270Z,22.25
2022-09-30T07:31:33.701Z,36.33
2022-09-30T07:34:02.423Z,21.70
2022-09-30T07:36:33.999Z,40.28
2022-09-30T07:39:06.549Z,44.47
2022-09-30T07:41:36.103Z,37.30
2022-09-30T07:44:04.074Z,29.05
2022-09-30T07:46:32.706Z,33.90
2022-09-30T07:49:02.218Z,28.83
2022-09-30T07:51:31.341Z,31.67
2022-09-30T07:54:00.314Z,37.38
2022-09-30T07:56:27.812Z,34.55
2022-09-30T07:58:56.245Z,30.02
2022-09-30T08:01:25.087Z,32.75
2022-09-30T08:03:56.450Z,31.67
2022-09-30T08:06:24.017Z,29.13
2022-09-30T08:08:52.099Z,37.10
2022-09-30T08:11:19.676Z,35.80
2022-09-30T08:13:51.597Z,31.85
2022-09-30T08:16:20.858Z,33.85
2022-09-30T08:18:48.163Z,34.13
2022-09-30T08:21:15.470Z,31.13
2022-09-30T08:23:42.744Z,30.13
2022-09-30T08:26:12.187Z,28.77
2022-09-30T08:28:40.227Z,28.67
2022-09-30T08:31:17.655Z,34.25
2022-09-30T08:33:45.255Z,41.20
2022-09-30T08:36:16.908Z,32.17
2022-09-30T08:38:44.489Z,28.45
2022-09-30T08:41:30.588Z,25.25
2022-09-30T08:44:07.157Z,26.33
2022-09-30T08:46:37.492Z,23.48
2022-09-30T08:49:23.849Z,23.90
2022-09-30T08:51:52.303Z,25.02
2022-09-30T08:54:21.948Z,28.15
2022-09-30T08:56:49.691Z,26.08
2022-09-30T08:59:49.413Z,26.98
2022-09-30T09:02:22.917Z,29.40
2022-09-30T09:04:52.326Z,28.48
2022-09-30T09:07:22.701Z,30.42
2022-09-30T09:09:52.979Z,34.75
2022-09-30T09:12:38.509Z,37.33
2022-09-30T09:15:24.513Z,34.92
2022-09-30T09:18:21.630Z,31.92
2022-09-30T09:20:48.371Z,31.23
2022-09-30T09:23:15.613Z,33.67
2022-09-30T09:25:46.248Z,31.30
2022-09-30T09:28:33.868Z,30.20
2022-09-30T09:31:03.527Z,29.45
2022-09-30T09:33:32.434Z,30.17
2022-09-30T09:35:59.715Z,26.55
2022-09-30T09:38:55.239Z,30.02
2022-09-30T09:41:34.858Z,30.65
2022-09-30T09:44:02.042Z,26.35
2022-09-30T09:46:41.030Z,24.60
2022-09-30T09:49:16.151Z,21.88
2022-09-30T09:51:47.330Z,27.23
2022-09-30T09:54:17.723Z,21.58
2022-09-30T09:56:45.087Z,24.17
2022-09-30T09:59:17.035Z,14.85
2022-09-30T10:04:16.265Z,22.80
2022-09-30T10:06:55.809Z,12.75
2022-09-30T10:09:23.077Z,11.45
2022-09-30T10:11:50.409Z,10.57
2022-09-30T10:14:21.820Z,14.00
2022-09-30T10:16:49.196Z,10.50
2022-09-30T10:19:23.746Z,8.02
2022-09-30T10:21:53.977Z,10.50
2022-09-30T10:24:22.724Z,7.55
2022-09-30T10:26:50.084Z,10.90
2022-09-30T10:29:32.062Z,6.95
2022-09-30T10:32:00.777Z,8.20
2022-09-30T10:34:30.705Z,10.02
2022-09-30T10:36:59.534Z,8.85
2022-09-30T10:39:28.621Z,8.25
2022-09-30T10:42:11.415Z,8.00
2022-09-30T10:44:54.314Z,7.30
2022-09-30T10:47:23.308Z,7.40
2022-09-30T10:50:07.879Z,7.88
2022-09-30T10:52:40.069Z,8.73
2022-09-30T10:55:14.710Z,10.57
2022-09-30T10:57:43.057Z,7.45
2022-09-30T11:00:19.638Z,8.63
2022-09-30T11:02:59.448Z,8.50
2022-09-30T11:05:31.756Z,14.88
2022-09-30T11:08:03.579Z,7.47
2022-09-30T11:10:33.883Z,6.93
2022-09-30T11:13:07.244Z,6.93
2022-09-30T11:15:37.571Z,9.32
2022-09-30T11:18:14.048Z,8.13
2022-09-30T11:20:46.414Z,6.95
2022-09-30T11:23:16.720Z,8.85
2022-09-30T11:25:46.557Z,6.55
2022-09-30T11:28:32.791Z,7.53
2022-09-30T11:31:08.831Z,5.72
2022-09-30T11:33:47.660Z,9.15
2022-09-30T11:36:14.992Z,8.05
2022-09-30T11:39:02.291Z,7.65
2022-09-30T11:41:48.628Z,19.02
2022-09-30T11:44:34.571Z,7.55
2022-09-30T11:47:07.847Z,14.35
2022-09-30T11:49:35.060Z,15.77
2022-09-30T11:52:20.882Z,10.30
2022-09-30T11:54:51.064Z,7.93
2022-09-30T11:57:33.173Z,8.25
2022-09-30T12:00:08.362Z,7.85
2022-09-30T12:02:38.180Z,4.65
2022-09-30T12:05:11.118Z,7.28
2022-09-30T12:07:44.374Z,6.35
2022-09-30T12:10:21.542Z,6.32
2022-09-30T12:12:50.828Z,4.55
2022-09-30T12:15:19.614Z,4.43
2022-09-30T12:17:49.466Z,6.15
2022-09-30T12:20:20.181Z,5.60
2022-09-30T12:22:47.762Z,4.28
2022-09-30T12:25:21.445Z,4.30
2022-09-30T12:27:56.054Z,4.45
2022-09-30T12:30:24.030Z,6.63
2022-09-30T12:32:51.272Z,8.32
2022-09-30T12:35:38.069Z,5.03
2022-09-30T12:38:25.975Z,8.93
2022-09-30T12:41:02.664Z,7.43
2022-09-30T12:43:45.385Z,9.20
2022-09-30T12:46:24.916Z,8.07
2022-09-30T12:48:55.743Z,3.90
2022-09-30T12:51:28.126Z,7.57
2022-09-30T12:53:59.210Z,4.25
2022-09-30T12:56:28.982Z,3.42
2022-09-30T12:58:58.035Z,8.00
2022-09-30T13:01:26.916Z,4.10
2022-09-30T13:04:11.461Z,4.97
2022-09-30T13:06:47.735Z,3.28
2022-09-30T13:09:18.012Z,4.13
2022-09-30T13:11:49.134Z,4.70
2022-09-30T13:14:33.019Z,4.55
2022-09-30T13:17:01.359Z,7.13
2022-09-30T13:19:48.284Z,14.23
2022-09-30T13:22:21.345Z,6.93
2022-09-30T13:24:57.986Z,3.80
2022-09-30T13:27:39.467Z,8.27
2022-09-30T13:30:15.838Z,4.15
2022-09-30T13:32:47.961Z,6.97
2022-09-30T13:35:33.788Z,4.75
2022-09-30T13:38:16.077Z,5.00
2022-09-30T13:41:07.257Z,8.20
2022-09-30T13:43:34.670Z,8.68
2022-09-30T13:46:07.117Z,6.55
2022-09-30T13:48:36.139Z,5.00
2022-09-30T13:51:08.099Z,5.70
2022-09-30T13:53:45.998Z,3.60
2022-09-30T13:56:20.744Z,7.55
2022-09-30T13:58:51.025Z,7.05
2022-09-30T14:01:21.614Z,5.15
2022-09-30T14:03:48.935Z,4.88
2022-09-30T14:06:35.940Z,6.03
2022-09-30T14:09:32.789Z,5.20
2022-09-30T14:12:12.404Z,4.28
2022-09-30T14:15:02.394Z,3.35
2022-09-30T14:17:32.688Z,5.82
2022-09-30T14:20:23.124Z,3.83
2022-09-30T14:22:50.415Z,2.88
2022-09-30T14:25:19.105Z,2.53
2022-09-30T14:27:53.346Z,2.97
2022-09-30T14:32:56.110Z,6.35
2022-09-30T14:35:25.228Z,10.38
2022-09-30T14:37:54.624Z,4.53
2022-09-30T14:40:27.688Z,6.43
2022-09-30T14:42:55.639Z,6.45
2022-09-30T14:45:28.393Z,3.78
2022-09-30T14:47:58.182Z,4.35
2022-09-30T14:50:27.460Z,1.83
2022-09-30T14:52:58.848Z,5.28
2022-09-30T14:55:27.064Z,2.15
2022-09-30T14:58:14.351Z,1.92
2022-09-30T15:00:41.751Z,4.53
2022-09-30T15:03:11.816Z,1.75
2022-09-30T15:05:39.267Z,2.30
2022-09-30T15:08:13.739Z,2.13
2022-09-30T15:10:47.512Z,1.90
2022-09-30T15:13:15.007Z,1.38
2022-09-30T15:15:42.408Z,1.30
2022-09-30T15:18:28.172Z,1.23
2022-09-30T15:20:56.759Z,1.55
2022-09-30T15:23:27.221Z,1.38
2022-09-30T15:25:55.454Z,1.85
2022-09-30T15:28:22.838Z,1.30
2022-09-30T15:30:53.788Z,2.17
2022-09-30T15:33:24.192Z,1.77
2022-09-30T15:35:55.165Z,2.42
2022-09-30T15:38:25.527Z,1.38
2022-09-30T15:41:00.916Z,1.63
2022-09-30T15:43:36.528Z,3.35
2022-09-30T15:46:17.361Z,1.42
2022-09-30T15:48:45.036Z,1.88
2022-09-30T15:51:42.445Z,3.92
2022-09-30T15:54:15.759Z,2.92
2022-09-30T15:56:43.588Z,2.03
2022-09-30T15:59:14.912Z,2.80
2022-09-30T16:01:44.613Z,1.20
2022-09-30T16:04:18.015Z,1.65
2022-09-30T16:06:47.962Z,1.43
2022-09-30T16:09:18.607Z,2.78
2022-09-30T16:11:48.758Z,1.42
2022-09-30T16:14:23.719Z,3.78
2022-09-30T16:16:54.768Z,4.55
2022-09-30T16:19:24.494Z,4.28
2022-09-30T16:21:52.650Z,2.75
2022-09-30T16:24:22.991Z,5.63
2022-09-30T16:26:50.780Z,4.95
2022-09-30T16:29:18.317Z,7.90
2022-09-30T16:31:46.780Z,5.63
2022-09-30T16:34:22.766Z,3.80
2022-09-30T16:36:50.738Z,4.60
2022-09-30T16:39:18.120Z,6.40
2022-09-30T16:41:45.585Z,5.35
2022-09-30T16:44:13.069Z,5.93
2022-09-30T16:46:40.468Z,6.03
2022-09-30T16:49:15.792Z,4.78
2022-09-30T16:51:43.257Z,4.53
2022-09-30T16:54:10.855Z,3.92
2022-09-30T16:56:38.376Z,3.08
2022-09-30T16:59:08.011Z,6.03
2022-09-30T17:01:35.642Z,4.97
2022-09-30T17:04:03.741Z,5.20
2022-09-30T17:06:32.660Z,9.27
2022-09-30T17:09:02.285Z,4.53
2022-09-30T17:11:31.319Z,5.07
2022-09-30T17:13:59.543Z,4.68
2022-09-30T17:16:27.426Z,5.18
2022-09-30T17:18:54.871Z,5.78
2022-09-30T17:21:23.108Z,6.72
2022-09-30T17:23:50.790Z,7.07
2022-09-30T17:26:18.210Z,6.10
2022-09-30T17:28:46.348Z,8.32
2022-09-30T17:31:13.708Z,6.97
2022-09-30T17:33:41.892Z,7.05
2022-09-30T17:36:10.443Z,7.35
2022-09-30T17:38:38.520Z,5.40
2022-09-30T17:41:25.512Z,7.40
2022-09-30T17:43:52.838Z,7.40
2022-09-30T17:46:23.837Z,6.20
2022-09-30T17:48:55.257Z,9.20
2022-09-30T17:51:22.494Z,8.38
2022-09-30T17:53:49.799Z,9.63
2022-09-30T17:56:19.623Z,6.53
2022-09-30T17:58:48.997Z,8.23
2022-09-30T18:01:17.154Z,8.57
2022-09-30T18:03:45.999Z,7.25
2022-09-30T18:06:14.668Z,6.03
2022-09-30T18:08:42.779Z,9.07
2022-09-30T18:11:10.085Z,7.35
2022-09-30T18:13:37.369Z,6.88
2022-09-30T18:16:08.160Z,7.50
2022-09-30T18:18:36.161Z,8.13
2022-09-30T18:21:03.423Z,7.35
2022-09-30T18:23:30.777Z,5.60
2022-09-30T18:25:58.576Z,8.15
2022-09-30T18:28:26.563Z,7.03
2022-09-30T18:30:53.811Z,8.40
2022-09-30T18:33:22.073Z,9.95
2022-09-30T18:35:49.582Z,9.88
2022-09-30T18:38:17.052Z,10.30
2022-09-30T18:40:45.855Z,12.50
2022-09-30T18:43:14.411Z,9.00
2022-09-30T18:45:43.802Z,7.97
2022-09-30T18:48:11.859Z,7.50
2022-09-30T18:50:39.700Z,7.95
2022-09-30T18:53:10.181Z,6.78
2022-09-30T18:55:43.906Z,8.85
2022-09-30T18:58:11.357Z,7.63
2022-09-30T19:00:38.974Z,8.20
2022-09-30T19:03:06.461Z,6.75
2022-09-30T19:05:33.837Z,10.75
2022-09-30T19:08:01.231Z,7.38
2022-09-30T19:10:29.428Z,8.20
2022-09-30T19:12:56.824Z,8.63
2022-09-30T19:15:24.101Z,6.65
2022-09-30T19:17:53.139Z,9.43
2022-09-30T19:20:20.562Z,7.88
2022-09-30T19:22:48.534Z,10.27
2022-09-30T19:25:16.684Z,14.48
2022-09-30T19:27:44.815Z,13.38
2022-09-30T19:30:12.957Z,14.65
2022-09-30T19:32:40.673Z,12.15
2022-09-30T19:35:17.266Z,10.98
2022-09-30T19:37:59.748Z,14.13
2022-09-30T19:43:01.915Z,12.50
2022-09-30T19:45:29.408Z,13.10
2022-09-30T19:47:57.527Z,13.07
2022-09-30T19:50:25.104Z,10.93
2022-09-30T19:52:57.397Z,9.88
2022-09-30T19:55:25.773Z,12.90
2022-09-30T19:57:53.091Z,10.75
2022-09-30T20:00:20.675Z,10.35
2022-09-30T20:02:47.914Z,12.07
2022-09-30T20:05:15.177Z,12.25
2022-09-30T20:07:42.459Z,9.05
2022-09-30T20:10:09.843Z,13.40
2022-09-30T20:12:37.142Z,13.05
2022-09-30T20:15:23.030Z,10.45
2022-09-30T20:17:50.459Z,10.45
2022-09-30T20:20:36.562Z,9.85
2022-09-30T20:23:03.834Z,11.88
2022-09-30T20:25:32.259Z,10.70
2022-09-30T20:27:59.662Z,9.95
2022-09-30T20:30:29.925Z,9.82
2022-09-30T20:32:57.259Z,12.05
2022-09-30T20:35:25.019Z,8.50
2022-09-30T20:37:54.041Z,8.48
2022-09-30T20:40:21.503Z,9.23
2022-09-30T20:42:48.836Z,7.60
2022-09-30T20:45:18.146Z,8.10
2022-09-30T20:47:47.138Z,11.50
2022-09-30T20:50:14.505Z,11.52
2022-09-30T20:52:41.737Z,11.85
2022-09-30T20:55:09.537Z,10.65
2022-09-30T20:57:36.895Z,11.20
2022-09-30T21:00:04.685Z,9.82
2022-09-30T21:02:31.941Z,10.07
2022-09-30T21:04:59.754Z,10.82
2022-09-30T21:07:27.459Z,10.77
2022-09-30T21:09:54.958Z,10.32
2022-09-30T21:12:22.732Z,23.20
2022-09-30T21:14:50.120Z,11.10
2022-09-30T21:17:17.364Z,15.35
2022-09-30T21:19:44.611Z,19.40
2022-09-30T21:22:11.829Z,8.70
2022-09-30T21:24:39.098Z,9.65
2022-09-30T21:27:06.823Z,9.45
2022-09-30T21:29:34.437Z,7.72
2022-09-30T21:32:01.925Z,12.90
2022-09-30T21:34:29.195Z,8.30
2022-09-30T21:36:56.448Z,13.05
2022-09-30T21:39:24.032Z,11.27
2022-09-30T21:41:51.297Z,11.70
2022-09-30T21:44:18.556Z,14.18
2022-09-30T21:46:48.680Z,9.15
2022-09-30T21:49:20.876Z,13.73
2022-09-30T21:51:48.160Z,10.82
2022-09-30T21:54:15.941Z,11.63
2022-09-30T21:56:43.692Z,8.98
2022-09-30T21:59:11.400Z,10.57
2022-09-30T22:01:38.858Z,11.18
2022-09-30T22:04:06.446Z,11.68
2022-09-30T22:06:33.688Z,9.65
2022-09-30T22:09:01.696Z,12.85
2022-09-30T22:11:30.727Z,9.40
2022-09-30T22:13:58.667Z,10.32
2022-09-30T22:16:27.353Z,12.10
2022-09-30T22:18:55.183Z,11.70
2022-09-30T22:21:22.859Z,15.30
2022-09-30T22:23:50.493Z,10.82
2022-09-30T22:26:19.041Z,12.57
2022-09-30T22:28:47.126Z,12.98
2022-09-30T22:31:16.515Z,9.75
2022-09-30T22:34:02.561Z,9.20
2022-09-30T22:36:48.575Z,13.73
2022-09-30T22:39:15.909Z,9.20
2022-09-30T22:41:43.126Z,9.98
2022-09-30T22:44:10.406Z,11.65
2022-09-30T22:46:38.836Z,12.52
2022-09-30T22:49:07.096Z,12.45
2022-09-30T22:51:34.548Z,11.15
2022-09-30T22:54:03.460Z,9.68
2022-09-30T22:56:33.568Z,10.63
2022-09-30T22:59:00.992Z,17.20
2022-09-30T23:01:32.188Z,12.43
2022-09-30T23:03:59.767Z,14.90
2022-09-30T23:06:27.091Z,14.35
2022-09-30T23:08:54.491Z,14.10
2022-09-30T23:11:23.362Z,13.10
2022-09-30T23:13:54.435Z,14.70
2022-09-30T23:16:24.145Z,14.33
2022-09-30T23:18:51.408Z,17.10
2022-09-30T23:21:19.288Z,15.65
2022-09-30T23:23:46.877Z,16.10
2022-09-30T23:26:17.187Z,18.60
2022-09-30T23:28:44.958Z,15.18
2022-09-30T23:31:13.807Z,16.50
2022-09-30T23:33:46.946Z,20.58
2022-09-30T23:36:15.334Z,18.30
2022-09-30T23:38:42.731Z,20.63
2022-09-30T23:41:10.095Z,20.92
2022-09-30T23:43:37.667Z,19.63
2022-09-30T23:46:08.856Z,26.83
2022-09-30T23:48:38.161Z,21.52
2022-09-30T23:51:06.144Z,24.17
2022-09-30T23:53:33.816Z,24.63
2022-09-30T23:56:06.351Z,23.00
2022-09-30T23:58:34.516Z,24.70
